Time;durP1;ratioP1;P1;durP2;ratioP2;P2;SDS_P1;SDS_P2;PMS_P1;PMS_P2;Temp;Humidity;BMP_temperature;BMP_pressure;BME280_temperature;BME280_humidity;BME280_pressure;Samples;Min_cycle;Max_cycle;Signal;HPM_P1;HPM_P2
2022/11/02 00:01:42;;;;;;;12.67;2.37;;;8.50;1.00;;;;;;5057296;28;20413;-85
2022/11/02 00:04:22;;;;;;;10.20;2.30;;;8.50;1.00;;;;;;5063510;28;20418;-85
2022/11/02 00:07:27;;;;;;;6.50;2.90;;;8.40;1.00;;;;;;5056359;28;20441;-85
2022/11/02 00:13:51;;;;;;;14.73;3.20;;;8.40;1.00;;;;;;5041718;28;20816;-84
2022/11/02 00:16:22;;;;;;;10.90;2.23;;;8.30;1.00;;;;;;5056162;28;20422;-84
2022/11/02 00:19:03;;;;;;;5.90;2.33;;;8.30;1.00;;;;;;5056514;28;20461;-79
2022/11/02 00:21:51;;;;;;;9.20;2.87;;;8.20;1.00;;;;;;5056624;28;20804;-80
2022/11/02 00:24:17;;;;;;;11.30;3.00;;;8.20;1.00;;;;;;5068218;28;20563;-79
2022/11/02 00:26:43;;;;;;;12.87;3.30;;;8.20;1.00;;;;;;5067501;28;20517;-79
2022/11/02 00:29:23;;;;;;;13.00;3.20;;;8.20;1.00;;;;;;5055595;28;20194;-79
2022/11/02 00:31:49;;;;;;;10.67;2.80;;;8.20;1.00;;;;;;5056602;28;20573;-79
2022/11/02 00:38:09;;;;;;;18.73;2.67;;;8.10;1.00;;;;;;5055210;28;20474;-84
2022/11/02 00:44:27;;;;;;;9.20;2.60;;;8.20;1.00;;;;;;5043694;28;20812;-84
2022/11/02 00:47:45;;;;;;;14.50;3.00;;;8.10;1.00;;;;;;5056918;28;20476;-84
2022/11/02 00:50:11;;;;;;;6.50;2.20;;;8.10;1.00;;;;;;5039888;28;20469;-80
2022/11/02 00:52:45;;;;;;;12.83;2.67;;;8.10;1.00;;;;;;5053002;28;20453;-79
2022/11/02 00:55:21;;;;;;;15.23;2.67;;;8.10;1.00;;;;;;5054366;28;20682;-79
2022/11/02 00:57:52;;;;;;;7.23;2.20;;;8.10;1.00;;;;;;5038962;28;20430;-79
2022/11/02 01:00:18;;;;;;;11.53;2.83;;;8.10;1.00;;;;;;5049971;28;20472;-80
2022/11/02 01:02:44;;;;;;;6.00;2.77;;;8.10;1.00;;;;;;5050408;28;20433;-79
2022/11/02 01:05:10;;;;;;;13.50;2.73;;;8.10;1.00;;;;;;5042888;28;20446;-79
2022/11/02 01:07:36;;;;;;;6.93;2.90;;;8.10;1.00;;;;;;5051644;28;20199;-79
2022/11/02 01:10:06;;;;;;;10.40;2.73;;;8.10;1.00;;;;;;5054669;28;20601;-79
2022/11/02 01:15:53;;;;;;;13.93;2.97;;;8.10;1.00;;;;;;5055370;28;20472;-79
2022/11/02 01:18:27;;;;;;;14.43;2.47;;;8.10;1.00;;;;;;5043100;28;20435;-79
2022/11/02 01:20:59;;;;;;;9.97;3.10;;;8.10;1.00;;;;;;5041087;28;20702;-79
2022/11/02 01:23:25;;;;;;;7.03;2.10;;;8.10;1.00;;;;;;5035966;28;20400;-79
2022/11/02 01:26:10;;;;;;;13.43;2.60;;;8.10;1.00;;;;;;5035358;28;20429;-79
2022/11/02 01:28:38;;;;;;;6.20;2.60;;;8.20;1.00;;;;;;5058871;28;20255;-79
2022/11/02 01:31:15;;;;;;;13.80;2.60;;;8.10;1.00;;;;;;5055386;28;20923;-79
2022/11/02 01:34:09;;;;;;;16.20;2.37;;;8.20;1.00;;;;;;5037505;28;20913;-84
2022/11/02 01:37:15;;;;;;;8.47;2.73;;;8.10;1.00;;;;;;5037879;28;20396;-79
2022/11/02 01:39:46;;;;;;;7.87;2.87;;;8.10;1.00;;;;;;5052274;28;20507;-79
2022/11/02 01:42:39;;;;;;;6.93;2.60;;;8.10;1.00;;;;;;5050104;28;20448;-80
2022/11/02 01:45:15;;;;;;;7.60;2.67;;;8.00;1.00;;;;;;5050307;28;20415;-79
2022/11/02 01:48:09;;;;;;;14.13;3.50;;;8.00;1.00;;;;;;5042737;28;20998;-79
2022/11/02 01:51:05;;;;;;;7.60;2.47;;;8.00;1.00;;;;;;5036206;28;20391;-85
2022/11/02 01:54:15;;;;;;;7.87;2.23;;;8.00;1.00;;;;;;5053042;28;20414;-84
2022/11/02 01:56:50;;;;;;;9.07;2.30;;;8.00;1.00;;;;;;5054512;28;20495;-84
2022/11/02 01:59:28;;;;;;;8.30;2.57;;;8.00;1.00;;;;;;5055895;28;20413;-85
2022/11/02 02:05:17;;;;;;;15.83;2.83;;;8.10;1.00;;;;;;5046202;28;20437;-84
2022/11/02 02:08:03;;;;;;;10.83;2.83;;;8.10;1.00;;;;;;5057723;28;20437;-84
2022/11/02 02:14:13;;;;;;;7.30;2.97;;;8.10;1.00;;;;;;5055401;28;20413;-83
2022/11/02 02:17:09;;;;;;;18.73;3.60;;;8.10;1.00;;;;;;5055262;28;20524;-84
2022/11/02 02:19:57;;;;;;;11.30;3.77;;;8.20;1.00;;;;;;5052207;28;20406;-79
2022/11/02 02:22:40;;;;;;;6.50;2.80;;;8.20;1.00;;;;;;5040736;28;20407;-79
2022/11/02 02:25:25;;;;;;;10.43;2.90;;;8.20;1.00;;;;;;5047997;28;20520;-79
2022/11/02 02:28:18;;;;;;;13.40;3.40;;;8.10;1.00;;;;;;5045783;28;20402;-80
2022/11/02 02:30:52;;;;;;;22.17;2.50;;;8.10;1.00;;;;;;5042779;28;20445;-79
2022/11/02 02:33:29;;;;;;;9.83;2.37;;;8.10;1.00;;;;;;5054193;28;20426;-79
2022/11/02 02:36:20;;;;;;;7.43;2.57;;;8.10;1.00;;;;;;5055437;28;20464;-85
2022/11/02 02:42:27;;;;;;;11.93;2.97;;;8.00;1.00;;;;;;5039377;28;20465;-84
2022/11/02 02:48:36;;;;;;;3.77;2.30;;;7.90;1.00;;;;;;5046933;28;20833;-84
2022/11/02 02:51:11;;;;;;;10.77;2.53;;;7.90;1.00;;;;;;5049755;28;20418;-80
2022/11/02 02:53:58;;;;;;;7.33;2.43;;;7.90;1.00;;;;;;5043016;28;20421;-79
2022/11/02 02:56:44;;;;;;;13.30;2.80;;;8.00;1.00;;;;;;5041031;28;20426;-79
2022/11/02 03:02:41;;;;;;;8.80;2.90;;;8.00;1.00;;;;;;5049565;28;20506;-80
2022/11/02 03:05:26;;;;;;;8.87;2.77;;;7.90;1.00;;;;;;5034296;28;20442;-85
2022/11/02 03:11:17;;;;;;;11.47;3.00;;;8.00;1.00;;;;;;5054322;28;20943;-85
2022/11/02 03:17:47;;;;;;;7.33;2.97;;;8.00;1.00;;;;;;5040293;28;20471;-84
2022/11/02 03:20:50;;;;;;;8.73;2.23;;;8.00;1.00;;;;;;4973957;28;20414;-79
2022/11/02 03:23:36;;;;;;;10.53;2.73;;;8.00;1.00;;;;;;4972627;28;20533;-79
2022/11/02 03:26:17;;;;;;;7.80;2.67;;;8.10;1.00;;;;;;4972612;28;20571;-79
2022/11/02 03:29:21;;;;;;;13.00;2.90;;;8.10;1.00;;;;;;4972590;28;20444;-79
2022/11/02 03:32:19;;;;;;;12.57;3.57;;;8.10;1.00;;;;;;4972978;28;20413;-79
2022/11/02 03:34:56;;;;;;;4.90;2.67;;;8.10;1.00;;;;;;4971961;28;20463;-81
2022/11/02 03:41:00;;;;;;;7.10;2.87;;;8.20;1.00;;;;;;4970759;28;20417;-84
2022/11/02 03:43:47;;;;;;;8.33;2.80;;;8.30;1.60;;;;;;4968427;28;20437;-85
2022/11/02 03:46:41;;;;;;;17.17;3.27;;;8.40;1.00;;;;;;4972910;28;20429;-85
2022/11/02 03:52:31;;;;;;;7.07;3.03;;;8.40;1.00;;;;;;4972219;28;20456;-79
2022/11/02 03:55:06;;;;;;;18.90;3.00;;;8.50;1.00;;;;;;4972181;28;20551;-79
2022/11/02 03:58:15;;;;;;;4.83;2.70;;;8.60;1.90;;;;;;5016439;28;20927;-80
2022/11/02 04:00:49;;;;;;;8.03;2.60;;;8.70;1.60;;;;;;5046569;28;20914;-80
2022/11/02 04:03:30;;;;;;;5.30;2.90;;;8.70;1.00;;;;;;5047118;28;20848;-79
2022/11/02 04:06:22;;;;;;;12.30;2.90;;;8.80;1.60;;;;;;5051225;28;20524;-85
2022/11/02 04:08:58;;;;;;;10.20;2.60;;;8.90;1.50;;;;;;5051619;28;20434;-85
2022/11/02 04:15:21;;;;;;;8.80;3.03;;;9.00;1.00;;;;;;5053965;28;20503;-85
2022/11/02 04:27:49;;;;;;;10.30;2.90;;;9.30;4.30;;;;;;5051827;28;20409;-85
2022/11/02 04:30:33;;;;;;;5.43;2.50;;;9.40;4.60;;;;;;5052518;28;20406;-85
2022/11/02 04:33:33;;;;;;;23.37;2.70;;;9.50;4.10;;;;;;5047003;28;20939;-83
2022/11/02 04:36:06;;;;;;;21.10;3.00;;;9.60;2.00;;;;;;5040588;28;20451;-80
2022/11/02 04:38:40;;;;;;;12.40;2.00;;;9.60;1.00;;;;;;5046462;28;20929;-81
2022/11/02 04:41:41;;;;;;;7.00;3.03;;;9.60;1.00;;;;;;5049823;28;20458;-79
2022/11/02 04:44:27;;;;;;;7.30;2.43;;;9.60;1.80;;;;;;5035583;28;20502;-80
2022/11/02 04:46:53;;;;;;;5.57;2.30;;;9.50;1.00;;;;;;5034993;28;20436;-80
2022/11/02 04:49:39;;;;;;;11.77;2.37;;;9.40;1.00;;;;;;5040594;28;20403;-80
2022/11/02 04:52:15;;;;;;;15.17;2.77;;;9.30;1.00;;;;;;5045120;28;20168;-79
2022/11/02 04:54:51;;;;;;;5.60;2.67;;;9.30;1.00;;;;;;5054882;28;20851;-80
2022/11/02 04:57:43;;;;;;;14.80;3.00;;;9.30;1.00;;;;;;5050787;28;20421;-80
2022/11/02 05:00:22;;;;;;;9.27;2.80;;;9.20;1.00;;;;;;5036255;28;20411;-80
2022/11/02 05:02:49;;;;;;;5.50;2.70;;;9.20;1.10;;;;;;5036069;28;20426;-80
2022/11/02 05:05:15;;;;;;;7.37;2.40;;;9.30;1.00;;;;;;5035973;28;20476;-83
2022/11/02 05:07:41;;;;;;;5.47;2.30;;;9.20;1.00;;;;;;5053193;28;20786;-78
2022/11/02 05:10:21;;;;;;;5.37;2.37;;;9.10;1.00;;;;;;5055647;28;20457;-78
2022/11/02 05:13:06;;;;;;;9.33;2.30;;;8.90;1.00;;;;;;5039009;28;20439;-78
2022/11/02 05:15:45;;;;;;;7.77;2.40;;;9.00;1.00;;;;;;5040475;28;20445;-79
2022/11/02 05:18:11;;;;;;;9.47;2.10;;;8.90;1.00;;;;;;5055473;28;20417;-78
2022/11/02 05:20:37;;;;;;;5.53;2.43;;;8.80;1.00;;;;;;5044142;28;20430;-78
2022/11/02 05:23:28;;;;;;;6.30;2.73;;;8.70;1.00;;;;;;5054248;28;20639;-85
2022/11/02 05:36:16;;;;;;;9.33;3.00;;;8.50;2.10;;;;;;5056003;28;20817;-79
2022/11/02 05:38:41;;;;;;;10.33;2.57;;;8.40;4.30;;;;;;5054668;28;20428;-85
2022/11/02 05:41:10;;;;;;;15.67;3.03;;;8.30;5.00;;;;;;5040171;28;20509;-85
2022/11/02 05:47:04;;;;;;;9.53;3.40;;;8.20;7.90;;;;;;5048984;28;20413;-85
2022/11/02 05:49:51;;;;;;;13.03;3.03;;;8.20;7.90;;;;;;5044122;28;20418;-84
2022/11/02 05:52:22;;;;;;;9.50;2.93;;;8.20;7.90;;;;;;5054515;28;20422;-79
2022/11/02 05:54:47;;;;;;;8.37;3.10;;;8.10;8.40;;;;;;5053954;28;20458;-77
2022/11/02 05:57:22;;;;;;;6.20;3.20;;;8.10;9.20;;;;;;5048240;28;20460;-78
2022/11/02 05:59:52;;;;;;;11.60;2.67;;;8.10;10.70;;;;;;5037137;28;20654;-78
2022/11/02 06:02:22;;;;;;;6.50;2.97;;;8.10;10.60;;;;;;5043203;28;20920;-78
2022/11/02 06:04:47;;;;;;;10.90;2.70;;;8.00;12.40;;;;;;5054191;28;20932;-78
2022/11/02 06:07:13;;;;;;;10.63;3.20;;;8.10;15.80;;;;;;5053747;28;20440;-79
2022/11/02 06:09:46;;;;;;;8.33;3.87;;;8.00;18.00;;;;;;5053029;28;20175;-78
2022/11/02 06:12:16;;;;;;;13.63;3.77;;;8.10;22.30;;;;;;5038390;28;20167;-78
2022/11/02 06:14:58;;;;;;;14.70;3.73;;;8.10;27.70;;;;;;5050480;28;20463;-78
2022/11/02 06:17:28;;;;;;;12.63;3.80;;;8.10;35.00;;;;;;5037260;28;20451;-78
2022/11/02 06:19:54;;;;;;;10.03;3.30;;;8.20;41.30;;;;;;5054006;28;20415;-78
2022/11/02 06:29:03;;;;;;;9.43;3.30;;;8.20;41.30;;;;;;5048486;28;20432;-86
2022/11/02 06:32:15;;;;;;;11.00;3.70;;;8.20;41.30;;;;;;5053639;28;20816;-85
2022/11/02 06:35:16;;;;;;;13.43;4.00;;;8.30;41.40;;;;;;5046637;28;20200;-85
2022/11/02 06:41:05;;;;;;;18.50;4.07;;;8.30;41.40;;;;;;5043658;28;20442;-85
2022/11/02 06:43:37;;;;;;;13.43;4.20;;;8.50;42.00;;;;;;5058064;28;20424;-86
2022/11/02 06:46:27;;;;;;;16.27;3.33;;;8.50;41.50;;;;;;5044945;28;20567;-85
2022/11/02 06:52:22;;;;;;;9.30;3.13;;;8.60;41.90;;;;;;5054062;28;20413;-81
2022/11/02 06:54:52;;;;;;;14.50;4.20;;;8.60;41.60;;;;;;5048845;28;20976;-78
2022/11/02 06:57:28;;;;;;;12.50;3.50;;;8.60;41.60;;;;;;5041638;28;20486;-78
2022/11/02 07:00:16;;;;;;;14.30;4.07;;;8.50;41.60;;;;;;5047318;28;20425;-78
2022/11/02 07:02:57;;;;;;;10.27;4.03;;;8.60;41.60;;;;;;5050716;28;20433;-78
2022/11/02 07:05:22;;;;;;;9.93;3.97;;;8.60;41.60;;;;;;5051510;28;20448;-78
2022/11/02 07:07:58;;;;;;;14.63;3.63;;;8.70;41.70;;;;;;5052548;28;20437;-78
2022/11/02 07:10:24;;;;;;;20.17;3.60;;;8.70;41.70;;;;;;5044435;28;20176;-78
2022/11/02 07:12:53;;;;;;;16.93;3.47;;;8.70;41.70;;;;;;5049555;28;20739;-78
2022/11/02 07:15:21;;;;;;;17.93;3.77;;;8.70;41.70;;;;;;5050191;28;20955;-74
2022/11/02 07:17:58;;;;;;;13.97;4.10;;;8.80;41.80;;;;;;5052294;28;20509;-74
2022/11/02 07:20:29;;;;;;;19.37;3.80;;;8.80;41.80;;;;;;5050194;28;20422;-74
2022/11/02 07:22:59;;;;;;;15.93;5.10;;;8.90;41.90;;;;;;5046026;28;20446;-75
2022/11/02 07:25:27;;;;;;;13.17;3.83;;;8.90;42.00;;;;;;5043515;28;20446;-75
2022/11/02 07:27:59;;;;;;;17.73;3.77;;;9.00;42.00;;;;;;5036572;28;20430;-74
2022/11/02 07:30:34;;;;;;;20.63;4.00;;;9.10;42.00;;;;;;5044072;28;20907;-76
2022/11/02 07:33:04;;;;;;;21.17;3.70;;;9.10;42.00;;;;;;5051540;28;20774;-75
2022/11/02 07:35:30;;;;;;;14.00;3.23;;;9.10;42.00;;;;;;5056315;28;20557;-77
2022/11/02 07:38:01;;;;;;;11.33;4.33;;;9.20;42.10;;;;;;5053879;28;20563;-69
2022/11/02 07:40:30;;;;;;;12.70;3.67;;;9.30;46.30;;;;;;5038742;28;20180;-75
2022/11/02 07:42:56;;;;;;;15.50;3.33;;;9.40;42.30;;;;;;5043209;28;20422;-69
2022/11/02 07:45:34;;;;;;;17.93;4.47;;;9.50;42.40;;;;;;5044817;28;20422;-81
2022/11/02 07:48:04;;;;;;;16.13;3.20;;;9.60;42.50;;;;;;5046002;28;20583;-81
2022/11/02 07:50:29;;;;;;;9.30;2.97;;;9.60;42.60;;;;;;5032496;28;20399;-81
2022/11/02 07:52:58;;;;;;;4.50;2.53;;;9.60;42.50;;;;;;5035251;28;20415;-82
2022/11/02 07:55:34;;;;;;;10.57;2.73;;;9.70;42.50;;;;;;5041540;28;20200;-82
2022/11/02 07:58:02;;;;;;;11.93;2.87;;;9.80;42.60;;;;;;5050100;28;20424;-67
2022/11/02 08:00:34;;;;;;;5.10;2.63;;;9.90;42.80;;;;;;5051160;28;20420;-67
2022/11/02 08:03:01;;;;;;;10.87;2.90;;;9.90;42.80;;;;;;5052014;28;20421;-68
2022/11/02 08:05:28;;;;;;;13.57;2.90;;;10.00;36.20;;;;;;5010277;28;1111533;-68
2022/11/02 08:07:58;;;;;;;15.20;3.27;;;10.10;33.20;;;;;;5051860;28;20184;-71
2022/11/02 08:10:24;;;;;;;14.27;3.20;;;10.10;32.60;;;;;;5041229;28;20434;-71
2022/11/02 08:12:50;;;;;;;16.70;3.20;;;10.30;27.50;;;;;;5049920;28;20457;-72
2022/11/02 08:15:16;;;;;;;5.93;3.10;;;10.40;22.30;;;;;;5051185;28;20459;-71
2022/11/02 08:17:41;;;;;;;10.07;3.00;;;10.60;20.30;;;;;;5051642;28;20171;-71
2022/11/02 08:20:08;;;;;;;7.20;2.73;;;10.60;13.70;;;;;;5047853;28;20448;-71
2022/11/02 08:22:37;;;;;;;6.30;2.67;;;10.80;9.50;;;;;;5042051;28;20178;-71
2022/11/02 08:25:04;;;;;;;5.80;1.90;;;10.90;7.20;;;;;;5056736;28;20436;-67
2022/11/02 08:27:30;;;;;;;5.63;2.67;;;11.00;2.90;;;;;;5054763;28;20513;-67
2022/11/02 08:29:55;;;;;;;9.90;2.10;;;11.00;1.00;;;;;;5054912;28;20500;-67
2022/11/02 08:32:21;;;;;;;7.00;2.30;;;11.20;1.00;;;;;;5055930;28;20183;-67
2022/11/02 08:34:47;;;;;;;20.63;2.80;;;11.20;1.00;;;;;;5054322;28;20211;-67
2022/11/02 08:37:12;;;;;;;7.67;2.20;;;11.30;1.00;;;;;;5052341;28;20631;-67
2022/11/02 08:39:38;;;;;;;13.10;2.13;;;11.50;1.00;;;;;;5043891;28;20195;-70
2022/11/02 08:42:04;;;;;;;2.83;1.77;;;11.70;1.00;;;;;;5047683;28;20187;-70
2022/11/02 08:44:30;;;;;;;22.47;2.43;;;12.00;1.00;;;;;;5054265;28;20627;-71
2022/11/02 08:46:56;;;;;;;9.93;2.33;;;12.20;1.00;;;;;;5055761;28;20214;-71
2022/11/02 08:49:22;;;;;;;6.93;1.90;;;12.50;1.00;;;;;;5054368;28;20651;-70
2022/11/02 08:51:47;;;;;;;16.30;2.83;;;12.80;1.00;;;;;;5051711;28;20446;-70
2022/11/02 08:54:14;;;;;;;5.13;1.60;;;13.00;1.00;;;;;;5044375;28;20906;-70
2022/11/02 08:56:39;;;;;;;12.03;2.23;;;13.10;1.00;;;;;;5052735;28;20700;-71
2022/11/02 08:59:05;;;;;;;14.73;2.23;;;13.10;1.00;;;;;;5054083;28;20463;-71
2022/11/02 09:01:31;;;;;;;10.03;2.10;;;13.20;1.00;;;;;;5049084;28;20620;-71
2022/11/02 09:03:57;;;;;;;12.13;1.97;;;13.20;1.00;;;;;;5036250;28;20601;-71
2022/11/02 09:06:23;;;;;;;4.23;2.00;;;13.30;1.00;;;;;;5048203;28;20428;-71
2022/11/02 09:08:49;;;;;;;10.73;2.37;;;13.30;1.00;;;;;;5053503;28;21030;-67
2022/11/02 09:11:15;;;;;;;8.20;1.67;;;13.40;1.00;;;;;;5053584;28;20191;-67
2022/11/02 09:13:41;;;;;;;17.27;2.70;;;13.50;1.00;;;;;;5055224;28;20202;-67
2022/11/02 09:16:07;;;;;;;4.90;1.70;;;13.60;1.00;;;;;;5054685;28;20497;-67
2022/11/02 09:18:32;;;;;;;18.30;2.30;;;13.70;1.00;;;;;;5055307;28;20187;-67
2022/11/02 09:21:03;;;;;;;7.83;1.73;;;13.80;1.00;;;;;;5054410;28;20440;-67
2022/11/02 09:23:28;;;;;;;10.63;2.23;;;13.80;1.00;;;;;;5043770;28;20184;-70
2022/11/02 09:25:54;;;;;;;7.33;1.60;;;13.90;1.00;;;;;;5053511;28;20434;-71
2022/11/02 09:28:20;;;;;;;6.60;3.30;;;14.00;1.00;;;;;;5053769;28;20195;-71
2022/11/02 09:30:46;;;;;;;7.83;1.80;;;14.10;1.00;;;;;;5054995;28;20180;-71
2022/11/02 09:33:12;;;;;;;10.13;2.40;;;14.20;1.00;;;;;;5053970;28;20554;-70
2022/11/02 09:35:42;;;;;;;8.30;1.53;;;14.40;1.00;;;;;;5055299;28;20207;-71
2022/11/02 09:38:08;;;;;;;10.73;1.80;;;14.50;1.00;;;;;;5051879;28;20447;-70
2022/11/02 09:40:40;;;;;;;12.30;1.93;;;14.60;1.00;;;;;;5039979;28;20433;-71
2022/11/02 09:43:16;;;;;;;9.80;1.93;;;14.60;1.00;;;;;;5054589;28;20791;-71
2022/11/02 09:45:50;;;;;;;5.47;1.30;;;14.60;1.00;;;;;;5054298;28;20410;-70
2022/11/02 09:48:21;;;;;;;12.83;1.60;;;14.60;1.00;;;;;;5050408;28;20430;-71
2022/11/02 09:51:10;;;;;;;9.03;2.07;;;14.70;1.00;;;;;;5052163;28;20448;-71
2022/11/02 09:53:41;;;;;;;9.67;2.03;;;14.60;1.00;;;;;;5054170;28;20407;-68
2022/11/02 09:56:09;;;;;;;10.20;1.90;;;14.70;1.00;;;;;;5053331;28;20493;-71
2022/11/02 09:58:38;;;;;;;6.77;2.00;;;14.80;1.00;;;;;;5053539;28;20442;-71
2022/11/02 10:01:45;;;;;;;6.30;1.90;;;14.90;1.00;;;;;;5053393;28;20416;-70
2022/11/02 10:04:48;;;;;;;5.33;1.70;;;15.00;1.00;;;;;;5051577;28;20459;-76
2022/11/02 10:07:53;;;;;;;5.87;1.73;;;15.10;1.00;;;;;;5052165;28;20448;-71
2022/11/02 10:10:38;;;;;;;5.60;1.87;;;15.30;1.00;;;;;;5006729;28;20422;-67
2022/11/02 10:13:04;;;;;;;11.87;2.13;;;15.20;1.00;;;;;;5010491;28;20458;-68
2022/11/02 10:15:42;;;;;;;7.23;1.10;;;15.30;1.00;;;;;;5012222;28;20545;-67
2022/11/02 10:18:19;;;;;;;4.40;1.50;;;15.40;1.00;;;;;;5012002;28;20189;-67
2022/11/02 10:20:51;;;;;;;8.73;1.80;;;15.60;1.00;;;;;;5011376;28;20454;-68
2022/11/02 10:23:31;;;;;;;7.27;1.60;;;15.60;1.00;;;;;;5012226;28;20417;-67
2022/11/02 10:25:58;;;;;;;8.60;1.57;;;15.80;1.00;;;;;;5015962;28;20434;-71
2022/11/02 10:28:29;;;;;;;5.50;1.30;;;15.90;1.00;;;;;;5009854;28;20430;-71
2022/11/02 10:30:55;;;;;;;5.87;1.53;;;16.20;1.00;;;;;;5010349;28;20446;-71
2022/11/02 10:33:26;;;;;;;9.03;1.63;;;16.10;1.00;;;;;;4988539;28;20505;-71
2022/11/02 10:36:10;;;;;;;7.30;1.57;;;16.20;1.00;;;;;;5009326;28;20483;-70
2022/11/02 10:38:55;;;;;;;6.80;1.27;;;16.00;1.00;;;;;;5010755;28;20482;-71
2022/11/02 10:41:29;;;;;;;12.73;1.87;;;16.00;1.00;;;;;;5012512;28;20820;-70
2022/11/02 10:44:34;;;;;;;4.67;1.10;;;15.80;1.00;;;;;;5020234;28;20405;-71
2022/11/02 10:47:19;;;;;;;8.67;1.40;;;15.70;1.00;;;;;;5036581;28;20399;-71
2022/11/02 10:50:32;;;;;;;4.53;1.30;;;15.80;1.00;;;;;;5052259;28;20440;-71
2022/11/02 10:53:02;;;;;;;6.07;1.63;;;15.80;1.00;;;;;;4971874;28;20533;-70
2022/11/02 10:55:55;;;;;;;11.83;1.80;;;15.80;1.00;;;;;;4972500;28;20975;-68
2022/11/02 10:58:22;;;;;;;8.53;1.33;;;15.80;1.00;;;;;;4972869;28;20422;-68
2022/11/02 11:00:48;;;;;;;6.53;1.57;;;15.90;1.00;;;;;;4972381;28;20556;-68
2022/11/02 11:03:15;;;;;;;15.07;1.97;;;16.00;1.00;;;;;;4971009;28;20455;-68
2022/11/02 11:05:50;;;;;;;6.17;1.33;;;16.00;1.00;;;;;;4967523;28;20545;-68
2022/11/02 11:08:34;;;;;;;5.90;1.20;;;15.90;1.00;;;;;;4974353;28;20499;-67
2022/11/02 11:11:19;;;;;;;6.87;1.40;;;15.90;1.00;;;;;;4972798;28;20405;-67
2022/11/02 11:13:55;;;;;;;8.07;1.43;;;16.20;1.00;;;;;;4966339;28;20432;-67
2022/11/02 11:17:01;;;;;;;10.83;2.03;;;16.40;1.00;;;;;;4972548;28;20496;-67
2022/11/02 11:19:46;;;;;;;8.03;1.60;;;16.30;1.00;;;;;;4946263;29;20433;-68
2022/11/02 11:22:37;;;;;;;5.40;1.43;;;16.50;1.00;;;;;;4943722;29;20402;-68
2022/11/02 11:25:12;;;;;;;6.80;1.57;;;16.40;1.00;;;;;;5011071;28;20402;-68
2022/11/02 11:28:22;;;;;;;6.27;1.57;;;16.20;1.00;;;;;;5008666;28;20432;-83
2022/11/02 11:31:04;;;;;;;7.37;1.50;;;16.20;1.00;;;;;;5007635;28;20530;-83
2022/11/02 11:33:56;;;;;;;5.67;1.70;;;16.30;1.00;;;;;;4992183;28;20865;-82
2022/11/02 11:36:26;;;;;;;8.10;1.30;;;16.30;1.00;;;;;;4961662;28;20465;-68
2022/11/02 11:38:55;;;;;;;6.13;1.77;;;16.30;1.00;;;;;;4972279;28;20482;-68
2022/11/02 11:41:22;;;;;;;6.27;1.13;;;16.30;1.00;;;;;;4972832;28;20427;-68
2022/11/02 11:43:49;;;;;;;4.50;1.60;;;16.40;1.00;;;;;;4971948;28;20429;-68
2022/11/02 11:46:16;;;;;;;5.20;1.10;;;16.40;1.00;;;;;;4972205;28;20447;-68
2022/11/02 11:48:46;;;;;;;4.80;1.20;;;16.50;1.00;;;;;;4971097;28;21046;-68
2022/11/02 11:51:33;;;;;;;6.67;1.33;;;16.60;1.00;;;;;;4971411;28;20437;-68
2022/11/02 11:54:18;;;;;;;10.40;1.20;;;16.50;1.00;;;;;;4971773;28;20428;-68
2022/11/02 11:56:45;;;;;;;5.70;1.07;;;16.50;1.00;;;;;;5011052;28;20410;-71
2022/11/02 11:59:23;;;;;;;10.93;1.67;;;16.50;1.00;;;;;;5015091;28;20421;-71
2022/11/02 12:01:56;;;;;;;5.43;1.50;;;16.50;1.00;;;;;;5015352;28;20743;-70
2022/11/02 12:04:34;;;;;;;7.53;1.77;;;16.30;1.00;;;;;;5015128;28;20425;-70
2022/11/02 12:07:18;;;;;;;12.90;2.20;;;16.00;1.00;;;;;;5014903;28;20934;-70
2022/11/02 12:09:56;;;;;;;6.07;1.90;;;16.10;1.00;;;;;;5014682;28;20805;-71
2022/11/02 12:12:34;;;;;;;6.63;1.10;;;16.40;1.00;;;;;;5011995;28;20402;-68
2022/11/02 12:15:09;;;;;;;9.10;1.80;;;16.50;1.00;;;;;;5048833;28;20461;-68
2022/11/02 12:17:41;;;;;;;4.20;1.23;;;16.80;1.00;;;;;;5041366;28;20397;-68
2022/11/02 12:20:28;;;;;;;5.50;1.30;;;17.00;1.00;;;;;;5055610;28;20880;-68
2022/11/02 12:23:25;;;;;;;3.90;1.10;;;17.10;1.00;;;;;;5043681;28;20430;-68
2022/11/02 12:26:24;;;;;;;6.53;1.30;;;17.00;1.00;;;;;;5047868;28;20448;-70
2022/11/02 12:29:03;;;;;;;7.20;1.33;;;16.90;1.00;;;;;;5052935;28;20436;-70
2022/11/02 12:32:03;;;;;;;8.47;1.20;;;16.80;1.00;;;;;;5053787;28;20814;-70
2022/11/02 12:34:50;;;;;;;7.00;1.73;;;16.60;1.00;;;;;;5055799;28;20540;-70
2022/11/02 12:37:26;;;;;;;4.07;1.10;;;16.40;1.00;;;;;;5055685;28;20957;-70
2022/11/02 12:40:28;;;;;;;5.23;1.20;;;16.40;1.00;;;;;;5050592;28;20405;-70
2022/11/02 12:43:16;;;;;;;7.40;1.73;;;16.30;1.00;;;;;;5051541;28;20427;-70
2022/11/02 12:45:46;;;;;;;3.80;1.10;;;16.40;1.00;;;;;;5056177;28;20381;-70
2022/11/02 12:48:24;;;;;;;6.63;1.80;;;16.30;1.00;;;;;;5055574;28;20788;-70
2022/11/02 12:51:06;;;;;;;9.37;1.47;;;16.20;1.00;;;;;;5049724;28;20389;-71
2022/11/02 12:53:35;;;;;;;5.30;1.23;;;16.10;1.00;;;;;;5055379;28;20541;-70
2022/11/02 12:56:05;;;;;;;4.30;1.33;;;16.00;1.00;;;;;;5055778;28;20466;-67
2022/11/02 12:58:35;;;;;;;7.53;1.50;;;16.10;1.00;;;;;;5056252;28;20393;-68
2022/11/02 13:01:36;;;;;;;4.97;1.30;;;16.10;1.00;;;;;;5046861;28;20426;-68
2022/11/02 13:04:20;;;;;;;11.73;1.37;;;16.00;1.00;;;;;;4974170;28;20440;-67
2022/11/02 13:06:52;;;;;;;9.50;1.10;;;16.00;1.00;;;;;;4973379;28;20467;-68
2022/11/02 13:09:29;;;;;;;6.10;1.00;;;16.00;1.00;;;;;;4980846;28;20405;-68
2022/11/02 13:12:17;;;;;;;4.83;1.73;;;15.90;1.00;;;;;;4948389;28;20401;-68
2022/11/02 13:14:55;;;;;;;4.40;1.27;;;15.90;1.00;;;;;;4972078;28;20443;-68
2022/11/02 13:17:26;;;;;;;11.87;1.30;;;15.80;1.00;;;;;;4985446;28;20520;-67
2022/11/02 13:19:53;;;;;;;9.47;1.27;;;15.70;1.00;;;;;;4980863;28;20411;-68
2022/11/02 13:22:22;;;;;;;4.53;1.20;;;15.70;1.00;;;;;;4977201;28;20430;-67
2022/11/02 13:24:56;;;;;;;9.20;1.50;;;15.60;1.00;;;;;;4977145;28;20447;-67
2022/11/02 13:27:30;;;;;;;7.10;1.07;;;15.60;1.00;;;;;;4971228;28;20414;-71
2022/11/02 13:30:00;;;;;;;10.20;1.57;;;15.70;1.00;;;;;;4977138;28;20949;-71
2022/11/02 13:32:37;;;;;;;4.27;1.27;;;15.80;1.00;;;;;;4975987;28;20420;-70
2022/11/02 13:35:17;;;;;;;5.50;1.50;;;16.00;1.00;;;;;;4974163;28;20482;-70
2022/11/02 13:37:59;;;;;;;5.87;1.20;;;15.90;1.00;;;;;;4971640;28;20950;-70
2022/11/02 13:40:30;;;;;;;8.27;1.17;;;16.00;1.00;;;;;;5039199;28;20413;-71
2022/11/02 13:43:24;;;;;;;5.63;1.10;;;16.20;1.00;;;;;;5055241;28;20401;-68
2022/11/02 13:46:05;;;;;;;4.00;1.67;;;16.20;1.00;;;;;;5051658;28;20528;-68
2022/11/02 13:48:49;;;;;;;3.83;1.27;;;16.30;1.00;;;;;;5051831;28;20431;-68
2022/11/02 13:51:27;;;;;;;3.80;1.23;;;16.40;1.00;;;;;;5049064;28;20500;-68
2022/11/02 13:54:19;;;;;;;8.73;1.37;;;16.40;1.00;;;;;;5051622;28;21022;-68
2022/11/02 13:56:46;;;;;;;3.77;1.33;;;16.50;1.00;;;;;;4973809;28;20449;-68
2022/11/02 13:59:25;;;;;;;3.23;1.03;;;16.30;1.00;;;;;;4972442;28;20441;-68
2022/11/02 14:01:52;;;;;;;5.77;1.20;;;16.40;1.00;;;;;;4972488;28;20482;-68
2022/11/02 14:04:19;;;;;;;14.00;1.43;;;16.30;1.00;;;;;;4972837;28;20437;-68
2022/11/02 14:06:55;;;;;;;6.23;1.80;;;16.30;1.00;;;;;;4972057;28;20548;-67
2022/11/02 14:09:43;;;;;;;8.30;1.37;;;16.20;1.00;;;;;;4967774;28;20489;-68
2022/11/02 14:12:38;;;;;;;4.43;1.53;;;16.10;1.00;;;;;;4971606;28;20466;-68
2022/11/02 14:15:12;;;;;;;4.10;1.30;;;16.00;1.00;;;;;;4972941;28;20478;-68
2022/11/02 14:18:00;;;;;;;8.27;1.30;;;16.00;1.00;;;;;;4973022;28;20503;-68
2022/11/02 14:20:32;;;;;;;9.83;1.70;;;15.80;1.00;;;;;;4973013;28;20451;-68
2022/11/02 14:23:10;;;;;;;6.27;1.57;;;15.80;1.00;;;;;;4971425;28;20438;-68
2022/11/02 14:25:46;;;;;;;10.40;1.30;;;15.90;1.00;;;;;;4971042;28;20797;-68
2022/11/02 14:28:21;;;;;;;10.20;1.40;;;15.90;1.00;;;;;;4969427;28;20450;-70
2022/11/02 14:31:27;;;;;;;6.63;1.40;;;15.90;1.00;;;;;;4972617;28;20495;-70
2022/11/02 14:34:02;;;;;;;8.20;1.20;;;15.80;1.00;;;;;;4990773;28;20867;-71
2022/11/02 14:36:52;;;;;;;10.33;1.27;;;15.70;1.00;;;;;;5010501;28;20448;-71
2022/11/02 14:39:41;;;;;;;3.40;1.33;;;15.60;1.00;;;;;;5010473;28;20505;-70
2022/11/02 14:42:20;;;;;;;8.60;1.30;;;15.50;1.00;;;;;;5011192;28;20411;-68
2022/11/02 14:45:22;;;;;;;5.03;1.13;;;15.60;1.00;;;;;;5011244;28;20431;-68
2022/11/02 14:47:58;;;;;;;6.43;1.30;;;15.70;1.00;;;;;;5009633;28;20386;-68
2022/11/02 14:50:25;;;;;;;9.40;1.70;;;15.80;1.00;;;;;;5011445;28;20482;-68
2022/11/02 14:53:20;;;;;;;5.33;1.20;;;15.70;1.00;;;;;;5011533;28;20415;-68
2022/11/02 14:55:53;;;;;;;9.07;1.50;;;15.80;1.00;;;;;;5003884;28;20474;-68
2022/11/02 14:58:21;;;;;;;6.83;1.10;;;15.70;1.00;;;;;;4987953;28;20463;-71
2022/11/02 15:00:46;;;;;;;10.70;1.40;;;15.70;1.00;;;;;;5008760;28;21017;-71
2022/11/02 15:03:24;;;;;;;8.83;1.27;;;15.60;1.00;;;;;;5011189;28;20432;-71
2022/11/02 15:06:04;;;;;;;6.57;1.00;;;15.60;1.00;;;;;;5009401;28;20730;-71
2022/11/02 15:08:47;;;;;;;14.10;1.50;;;15.60;1.00;;;;;;5016879;28;20398;-70
2022/11/02 15:12:00;;;;;;;5.70;1.17;;;15.50;1.00;;;;;;5041718;28;20449;-71
2022/11/02 15:14:36;;;;;;;12.03;1.37;;;15.40;1.00;;;;;;5045844;28;20535;-71